Time;durP1;ratioP1;P1;durP2;ratioP2;P2;SDS_P1;SDS_P2;PMS_P1;PMS_P2;Temp;Humidity;BMP_temperature;BMP_pressure;BME280_temperature;BME280_humidity;BME280_pressure;Samples;Min_cycle;Max_cycle;Signal;HPM_P1;HPM_P2
2021/05/16 00:00:14;;;;;;;20.92;12.48;;;;;;;9.27;91.57;99906.03;1044892;28;20096;-74
2021/05/16 00:00:46;;;;;;;18.27;12.98;;;;;;;9.24;91.63;99905.16;1048679;28;20082;-75
2021/05/16 00:01:17;;;;;;;16.17;12.43;;;;;;;9.25;91.78;99902.59;1049609;28;20056;-74
2021/05/16 00:01:49;;;;;;;19.85;13.10;;;;;;;9.27;91.72;99898.31;1049370;28;20501;-74
2021/05/16 00:02:26;;;;;;;23.00;13.70;;;;;;;9.31;91.76;99903.50;1048589;28;20454;-75
2021/05/16 00:02:58;;;;;;;18.10;11.68;;;;;;;9.25;91.79;99902.59;1048633;28;20052;-74
2021/05/16 00:03:29;;;;;;;19.55;13.32;;;;;;;9.23;91.62;99891.41;1049883;28;20056;-74
2021/05/16 00:04:01;;;;;;;19.23;14.13;;;;;;;9.27;91.49;99893.13;1049667;28;20132;-74
2021/05/16 00:04:33;;;;;;;20.80;13.35;;;;;;;9.31;91.56;99901.78;1048474;28;20055;-74
2021/05/16 00:05:07;;;;;;;24.83;13.63;;;;;;;9.28;91.34;99894.84;1044424;28;20146;-75
2021/05/16 00:05:40;;;;;;;18.85;13.50;;;;;;;9.27;91.46;99893.13;1041157;28;20484;-75
2021/05/16 00:06:14;;;;;;;19.92;13.90;;;;;;;9.32;91.14;99895.75;1041747;28;20053;-74
2021/05/16 00:06:46;;;;;;;16.35;12.15;;;;;;;9.33;91.32;99899.19;1041677;28;20049;-75
2021/05/16 00:07:18;;;;;;;21.85;13.75;;;;;;;9.32;91.35;99898.31;1044182;28;20045;-75
2021/05/16 00:07:51;;;;;;;51.15;16.02;;;;;;;9.33;91.44;99896.59;1044703;28;20053;-75
2021/05/16 00:08:22;;;;;;;18.88;14.50;;;;;;;9.35;91.34;99898.31;1045258;28;20091;-75
2021/05/16 00:08:54;;;;;;;24.35;15.00;;;;;;;9.36;91.29;99896.59;1049321;28;20045;-75
2021/05/16 00:09:28;;;;;;;20.80;14.25;;;;;;;9.35;91.09;99898.31;1048475;28;20052;-74
2021/05/16 00:10:00;;;;;;;22.85;15.23;;;;;;;9.34;91.66;99898.31;1047388;28;20063;-75
2021/05/16 00:10:32;;;;;;;21.85;15.25;;;;;;;9.36;91.83;99901.75;1042371;28;20061;-75
2021/05/16 00:11:04;;;;;;;18.13;14.38;;;;;;;9.34;91.55;99898.31;1044395;28;20472;-75
2021/05/16 00:11:36;;;;;;;24.02;15.93;;;;;;;9.34;91.78;99898.31;1045514;28;20127;-74
2021/05/16 00:12:11;;;;;;;24.02;14.95;;;;;;;9.34;91.82;99896.59;1044851;28;20610;-74
2021/05/16 00:12:43;;;;;;;18.20;14.02;;;;;;;9.33;91.79;99897.47;1045483;28;20040;-74
2021/05/16 00:13:15;;;;;;;32.00;15.13;;;;;;;9.36;91.83;99905.25;1048455;28;20049;-74
2021/05/16 00:13:47;;;;;;;21.60;14.85;;;;;;;9.35;91.84;99897.47;1045570;28;20056;-75
2021/05/16 00:14:19;;;;;;;31.75;16.45;;;;;;;9.36;91.65;99896.59;1044916;28;20465;-75
2021/05/16 00:14:50;;;;;;;27.27;15.75;;;;;;;9.37;91.75;99900.94;1048630;28;20105;-75
2021/05/16 00:15:25;;;;;;;25.85;15.07;;;;;;;9.34;91.53;99898.31;1048414;28;20048;-75
2021/05/16 00:15:57;;;;;;;32.17;16.17;;;;;;;9.35;91.67;99895.75;1048506;28;20052;-74
2021/05/16 00:16:29;;;;;;;25.88;16.00;;;;;;;9.36;91.66;99901.75;1045257;28;20615;-73
2021/05/16 00:17:00;;;;;;;24.38;15.35;;;;;;;9.37;91.45;99901.78;1044269;28;20057;-74
2021/05/16 00:17:33;;;;;;;28.92;16.55;;;;;;;9.37;91.52;99894.06;1040009;28;20057;-75
2021/05/16 00:18:05;;;;;;;30.48;17.15;;;;;;;9.39;91.44;99894.06;1036945;28;20093;-74
2021/05/16 00:18:37;;;;;;;23.25;16.50;;;;;;;9.40;91.49;99896.63;1034484;28;20077;-75
2021/05/16 00:19:09;;;;;;;24.58;16.23;;;;;;;9.41;91.64;99894.91;1040057;28;20045;-75
2021/05/16 00:19:41;;;;;;;24.83;15.77;;;;;;;9.37;91.56;99895.78;1039221;28;20045;-74
2021/05/16 00:20:20;;;;;;;25.90;15.75;;;;;;;9.37;91.39;99890.63;1039768;28;20437;-75
2021/05/16 00:20:52;;;;;;;19.30;13.82;;;;;;;9.37;91.67;99901.78;1041898;28;20452;-74
2021/05/16 00:21:25;;;;;;;27.38;16.30;;;;;;;9.37;91.15;99900.94;1040460;28;20045;-74
2021/05/16 00:21:56;;;;;;;22.23;14.75;;;;;;;9.38;91.57;99894.91;1040257;28;20050;-75
2021/05/16 00:22:29;;;;;;;28.40;15.30;;;;;;;9.38;91.33;99892.34;1045097;28;20052;-75
2021/05/16 00:23:01;;;;;;;25.08;15.85;;;;;;;9.40;91.26;99899.22;1045076;28;20158;-75
2021/05/16 00:23:32;;;;;;;23.98;15.48;;;;;;;9.38;91.53;99893.19;1049269;28;20052;-74
2021/05/16 00:24:05;;;;;;;29.73;16.23;;;;;;;9.38;91.30;99893.19;1048673;28;20040;-75
2021/05/16 00:24:36;;;;;;;25.52;14.90;;;;;;;9.40;91.21;99896.63;1049215;28;20091;-75
2021/05/16 00:25:12;;;;;;;25.05;16.70;;;;;;;9.40;91.50;99898.34;1048422;28;20098;-74
2021/05/16 00:25:44;;;;;;;26.02;16.48;;;;;;;9.40;91.26;99899.22;1041544;28;20136;-74
2021/05/16 00:26:18;;;;;;;24.08;16.02;;;;;;;9.41;91.46;99895.78;1040182;28;20092;-75
2021/05/16 00:26:50;;;;;;;26.48;16.80;;;;;;;9.38;91.35;99894.91;1040218;28;20058;-74
2021/05/16 00:27:22;;;;;;;25.23;15.55;;;;;;;9.38;91.15;99900.94;1042257;28;20537;-74
2021/05/16 00:27:54;;;;;;;24.52;15.98;;;;;;;9.42;91.73;99894.06;1049355;28;20500;-75
2021/05/16 00:28:26;;;;;;;30.48;17.15;;;;;;;9.38;91.49;99893.19;1052037;28;20044;-75
2021/05/16 00:28:58;;;;;;;24.35;15.85;;;;;;;9.36;91.94;99894.91;1044928;28;20122;-74
2021/05/16 00:29:29;;;;;;;25.13;16.13;;;;;;;9.39;92.00;99897.50;1048118;28;20055;-74
2021/05/16 00:30:04;;;;;;;24.17;16.13;;;;;;;9.39;91.69;99899.22;1050348;28;20508;-75
2021/05/16 00:30:36;;;;;;;26.55;15.07;;;;;;;9.38;91.72;99890.59;1052804;28;20097;-75
2021/05/16 00:31:07;;;;;;;25.55;16.17;;;;;;;9.39;91.79;99894.06;1052477;28;20044;-75
2021/05/16 00:31:39;;;;;;;30.55;16.40;;;;;;;9.38;91.55;99889.75;1052379;28;20040;-75
2021/05/16 00:32:10;;;;;;;27.35;17.38;;;;;;;9.40;91.68;99888.03;1048507;28;20048;-74
2021/05/16 00:32:44;;;;;;;32.95;16.63;;;;;;;9.41;91.67;99893.19;1049033;28;20048;-74
2021/05/16 00:33:17;;;;;;;29.63;15.52;;;;;;;9.42;91.82;99891.50;1048334;28;20056;-75
2021/05/16 00:33:48;;;;;;;23.27;15.10;;;;;;;9.41;91.79;99902.66;1044079;28;20163;-75
2021/05/16 00:34:26;;;;;;;30.50;16.98;;;;;;;9.43;91.51;99900.97;1044399;28;20044;-75
2021/05/16 00:34:58;;;;;;;29.92;16.75;;;;;;;9.42;91.52;99894.06;1047478;28;20183;-75
2021/05/16 00:35:32;;;;;;;27.30;15.05;;;;;;;9.41;91.63;99892.31;1052717;28;20411;-74
2021/05/16 00:36:04;;;;;;;25.23;14.52;;;;;;;9.41;91.67;99898.34;1051980;28;20547;-74
2021/05/16 00:36:36;;;;;;;28.73;15.80;;;;;;;9.43;91.60;99900.97;1040120;28;20124;-73
2021/05/16 00:37:08;;;;;;;25.27;16.15;;;;;;;9.43;91.62;99896.66;1035820;28;20056;-74
2021/05/16 00:37:40;;;;;;;23.27;15.02;;;;;;;9.43;91.58;99904.41;1031666;28;20047;-74
2021/05/16 00:38:11;;;;;;;25.10;14.55;;;;;;;9.43;91.43;99896.66;1032583;28;20133;-74
2021/05/16 00:38:43;;;;;;;27.33;16.02;;;;;;;9.43;91.64;99893.22;1032679;28;20109;-74
2021/05/16 00:39:15;;;;;;;28.30;15.18;;;;;;;9.44;91.66;99902.69;1036090;28;20054;-74
2021/05/16 00:39:47;;;;;;;23.33;14.15;;;;;;;9.40;91.48;99896.63;1039154;28;20096;-74
2021/05/16 00:40:19;;;;;;;23.75;14.85;;;;;;;9.43;91.75;99896.66;1045118;28;20400;-74
2021/05/16 00:40:50;;;;;;;28.52;15.50;;;;;;;9.44;91.66;99898.38;1048192;28;20049;-74
2021/05/16 00:41:23;;;;;;;28.45;16.80;;;;;;;9.42;91.60;99900.09;1047995;28;20139;-73
2021/05/16 00:42:02;;;;;;;31.08;16.58;;;;;;;9.44;91.72;99900.09;1040262;28;20057;-74
2021/05/16 00:42:34;;;;;;;27.05;15.50;;;;;;;9.46;91.55;99898.38;1036094;28;20049;-74
2021/05/16 00:43:07;;;;;;;26.48;14.95;;;;;;;9.46;91.56;99900.94;1039120;28;20046;-74
2021/05/16 00:43:39;;;;;;;28.50;15.93;;;;;;;9.45;92.01;99899.22;1036075;28;20045;-75
2021/05/16 00:44:10;;;;;;;25.17;15.70;;;;;;;9.45;92.11;99896.66;1032869;28;20062;-74
2021/05/16 00:45:01;;;;;;;31.45;16.05;;;;;;;9.43;91.93;99904.41;1032614;28;20046;-75
2021/05/16 00:45:34;;;;;;;21.90;13.18;;;;;;;9.44;91.82;99902.69;1035096;28;20490;-75
2021/05/16 00:46:09;;;;;;;24.02;14.45;;;;;;;9.44;91.62;99897.50;1035332;28;20133;-75
2021/05/16 00:46:40;;;;;;;28.20;16.20;;;;;;;9.44;91.64;99902.69;1039690;28;20566;-74
2021/05/16 00:47:12;;;;;;;31.80;16.98;;;;;;;9.44;92.14;99900.97;1041060;28;20045;-75
2021/05/16 00:47:53;;;;;;;26.60;15.15;;;;;;;9.44;92.02;99900.97;1038586;28;20504;-75
2021/05/16 00:48:24;;;;;;;28.05;13.70;;;;;;;9.44;91.95;99900.97;1036129;28;20487;-76
2021/05/16 00:48:56;;;;;;;33.00;16.15;;;;;;;9.44;91.98;99898.38;1033646;28;20084;-76
2021/05/16 00:49:27;;;;;;;29.55;15.93;;;;;;;9.46;91.91;99898.38;1034473;28;20129;-76
2021/05/16 00:49:59;;;;;;;26.70;16.23;;;;;;;9.47;91.94;99897.50;1033262;28;20516;-76
2021/05/16 00:50:38;;;;;;;27.50;14.18;;;;;;;9.47;92.01;99900.97;1032506;28;20046;-75
2021/05/16 00:51:11;;;;;;;27.85;16.75;;;;;;;9.45;92.13;99897.50;1033487;28;20065;-76
2021/05/16 00:51:43;;;;;;;30.13;15.85;;;;;;;9.43;92.34;99895.78;1037606;28;20076;-75
2021/05/16 00:52:15;;;;;;;26.27;15.65;;;;;;;9.43;92.20;99896.66;1036021;28;20533;-76
2021/05/16 00:52:47;;;;;;;31.88;15.77;;;;;;;9.43;92.26;99894.06;1032767;28;20061;-76
2021/05/16 00:53:22;;;;;;;31.60;15.93;;;;;;;9.43;92.04;99899.25;1032697;28;20047;-76
2021/05/16 00:53:55;;;;;;;28.98;16.08;;;;;;;9.42;92.43;99889.78;1031736;28;20050;-76
2021/05/16 00:54:27;;;;;;;28.77;15.27;;;;;;;9.46;92.25;99893.22;1036548;28;20073;-76
2021/05/16 00:54:58;;;;;;;28.38;16.45;;;;;;;9.44;92.15;99897.50;1037359;28;20058;-76
2021/05/16 00:55:30;;;;;;;29.45;14.85;;;;;;;9.42;92.23;99892.34;1040766;28;20543;-75
2021/05/16 00:56:02;;;;;;;27.67;15.50;;;;;;;9.42;92.15;99894.94;1041050;28;20160;-76
2021/05/16 00:56:35;;;;;;;23.70;13.85;;;;;;;9.42;92.14;99894.94;1036602;28;20417;-76
2021/05/16 00:57:06;;;;;;;29.35;16.70;;;;;;;9.41;92.10;99895.78;1040263;28;20049;-76
2021/05/16 00:57:39;;;;;;;28.02;15.43;;;;;;;9.42;92.15;99887.19;1043490;28;20057;-75
2021/05/16 00:58:10;;;;;;;25.92;14.82;;;;;;;9.41;92.35;99893.19;1044373;28;20067;-76
2021/05/16 00:58:42;;;;;;;29.50;15.23;;;;;;;9.42;92.44;99896.66;1044382;28;20053;-76
2021/05/16 00:59:13;;;;;;;26.23;14.80;;;;;;;9.43;92.34;99896.66;1044131;28;20501;-75
2021/05/16 00:59:45;;;;;;;30.85;15.93;;;;;;;9.43;92.21;99895.78;1044281;28;20053;-75
2021/05/16 01:00:22;;;;;;;27.25;15.88;;;;;;;9.44;92.52;99895.78;1040623;28;20052;-76
2021/05/16 01:00:54;;;;;;;29.15;13.65;;;;;;;9.41;92.07;99893.19;1044298;28;20079;-76
2021/05/16 01:01:27;;;;;;;24.80;13.15;;;;;;;9.39;92.42;99891.47;1040123;28;20049;-77
2021/05/16 01:01:58;;;;;;;27.42;14.55;;;;;;;9.39;92.63;99896.63;1041646;28;20049;-76
2021/05/16 01:02:30;;;;;;;24.25;14.80;;;;;;;9.36;92.54;99888.88;1040120;28;20441;-77
2021/05/16 01:03:02;;;;;;;27.67;14.88;;;;;;;9.35;92.59;99890.59;1036740;28;20184;-76
2021/05/16 01:03:34;;;;;;;30.55;14.73;;;;;;;9.35;92.82;99893.16;1040230;28;20049;-75
2021/05/16 01:04:06;;;;;;;28.25;14.70;;;;;;;9.35;93.00;99892.31;1040169;28;20056;-76
2021/05/16 01:04:39;;;;;;;28.58;15.80;;;;;;;9.37;93.01;99890.63;1035953;28;20050;-77
2021/05/16 01:05:14;;;;;;;22.98;14.27;;;;;;;9.37;93.02;99894.06;1036011;28;20064;-76
2021/05/16 01:05:47;;;;;;;27.00;15.00;;;;;;;9.37;93.12;99893.19;1035847;28;20101;-76
2021/05/16 01:06:18;;;;;;;33.83;15.52;;;;;;;9.39;93.24;99894.91;1037397;28;20434;-76
2021/05/16 01:06:50;;;;;;;33.28;15.05;;;;;;;9.34;93.09;99895.75;1035757;28;20136;-76
2021/05/16 01:07:21;;;;;;;28.98;15.15;;;;;;;9.32;92.83;99892.31;1036434;28;20042;-76
2021/05/16 01:07:53;;;;;;;27.60;17.55;;;;;;;9.33;93.12;99894.88;1036434;28;20445;-76
2021/05/16 01:08:24;;;;;;;35.20;17.73;;;;;;;9.31;93.26;99888.88;1040714;28;20079;-77
2021/05/16 01:09:00;;;;;;;48.20;18.65;;;;;;;9.32;93.05;99888.00;1040063;28;20187;-77
2021/05/16 01:09:32;;;;;;;32.22;18.15;;;;;;;9.34;93.12;99893.16;1041121;28;20080;-77
2021/05/16 01:10:06;;;;;;;30.23;17.10;;;;;;;9.38;93.10;99892.34;1040164;28;20053;-77
2021/05/16 01:10:39;;;;;;;33.40;17.65;;;;;;;9.36;93.40;99894.03;1036039;28;20115;-77
2021/05/16 01:11:10;;;;;;;30.55;17.70;;;;;;;9.35;93.19;99900.03;1032944;28;20054;-78
2021/05/16 01:11:45;;;;;;;28.45;17.67;;;;;;;9.34;92.97;99888.00;1035890;28;20165;-78
2021/05/16 01:12:16;;;;;;;30.83;18.10;;;;;;;9.31;93.00;99891.44;1032882;28;20517;-78
2021/05/16 01:12:51;;;;;;;32.40;18.27;;;;;;;9.33;93.07;99888.88;1032935;28;20053;-78
2021/05/16 01:13:25;;;;;;;34.95;18.90;;;;;;;9.36;93.01;99896.59;1033249;28;20089;-78
2021/05/16 01:13:57;;;;;;;32.55;17.45;;;;;;;9.36;92.90;99887.16;1037187;28;20171;-77
2021/05/16 01:14:34;;;;;;;33.53;17.85;;;;;;;9.38;92.94;99889.75;1037264;28;20485;-77
2021/05/16 01:15:11;;;;;;;31.00;19.33;;;;;;;9.37;92.83;99894.06;1041693;28;20049;-76
2021/05/16 01:15:45;;;;;;;38.97;19.52;;;;;;;9.42;92.71;99891.50;1040170;28;20056;-77
2021/05/16 01:16:16;;;;;;;33.40;20.80;;;;;;;9.39;92.98;99892.31;1038342;28;20132;-77
2021/05/16 01:16:48;;;;;;;28.05;18.38;;;;;;;9.38;92.78;99885.44;1040100;28;20053;-76
2021/05/16 01:17:20;;;;;;;35.55;17.92;;;;;;;9.37;92.35;99888.03;1039940;28;20079;-76
2021/05/16 01:17:52;;;;;;;34.60;19.25;;;;;;;9.38;92.04;99882.88;1040918;28;20053;-76
2021/05/16 01:18:23;;;;;;;34.10;20.25;;;;;;;9.37;92.61;99885.44;1043691;28;20493;-76
2021/05/16 01:18:55;;;;;;;33.92;18.88;;;;;;;9.41;92.31;99889.75;1040106;28;20054;-76
2021/05/16 01:19:29;;;;;;;32.92;18.55;;;;;;;9.40;92.66;99888.88;1036570;28;20133;-76
2021/05/16 01:20:01;;;;;;;31.30;18.40;;;;;;;9.41;92.77;99890.59;1036036;28;20072;-76
2021/05/16 01:20:36;;;;;;;34.50;18.08;;;;;;;9.41;92.31;99890.59;1031951;28;20177;-77
2021/05/16 01:21:08;;;;;;;30.58;17.45;;;;;;;9.40;92.31;99888.88;1029157;28;20138;-76
2021/05/16 01:21:41;;;;;;;31.77;18.52;;;;;;;9.42;92.62;99883.75;1028807;28;20054;-76
2021/05/16 01:22:12;;;;;;;33.53;17.75;;;;;;;9.42;92.65;99887.19;1036042;28;20056;-76
2021/05/16 01:22:51;;;;;;;31.33;18.00;;;;;;;9.41;92.78;99884.59;1032739;28;20057;-76
2021/05/16 01:23:37;;;;;;;32.72;16.70;;;;;;;9.42;92.93;99887.19;1033399;28;20046;-76
2021/05/16 01:24:17;;;;;;;32.92;16.27;;;;;;;9.41;92.81;99888.03;1039401;28;20046;-76
2021/05/16 01:24:49;;;;;;;28.83;17.02;;;;;;;9.42;92.86;99889.78;1040014;28;20052;-76
2021/05/16 01:25:21;;;;;;;34.40;17.42;;;;;;;9.43;92.87;99883.75;1035976;28;20089;-76
2021/05/16 01:25:53;;;;;;;32.33;18.05;;;;;;;9.45;93.12;99889.78;1031733;28;20051;-76
2021/05/16 01:26:24;;;;;;;32.60;18.25;;;;;;;9.42;92.99;99876.00;1032723;28;20054;-76
2021/05/16 01:26:58;;;;;;;30.30;17.33;;;;;;;9.43;93.09;99883.75;1035849;28;20042;-76
2021/05/16 01:27:30;;;;;;;33.50;17.23;;;;;;;9.38;92.91;99877.69;1035943;28;20046;-76
2021/05/16 01:28:02;;;;;;;37.42;17.92;;;;;;;9.37;92.90;99880.28;1035823;28;20049;-75
2021/05/16 01:28:33;;;;;;;31.63;17.77;;;;;;;9.41;92.82;99882.84;1036696;28;20088;-76
2021/05/16 01:29:05;;;;;;;31.25;15.55;;;;;;;9.42;93.14;99884.63;1036566;28;20050;-76
2021/05/16 01:29:37;;;;;;;29.92;15.80;;;;;;;9.43;92.85;99885.47;1040730;28;20053;-75
2021/05/16 01:30:09;;;;;;;33.78;17.05;;;;;;;9.39;92.81;99879.41;1039930;28;20049;-75
2021/05/16 01:30:43;;;;;;;28.67;14.75;;;;;;;9.41;92.83;99887.16;1036565;28;20429;-76
2021/05/16 01:31:15;;;;;;;33.35;17.00;;;;;;;9.40;92.65;99883.72;1035888;28;20080;-76
2021/05/16 01:31:47;;;;;;;31.35;14.65;;;;;;;9.40;92.50;99888.88;1031939;28;20046;-76
2021/05/16 01:32:21;;;;;;;30.08;15.70;;;;;;;9.39;92.48;99886.31;1032824;28;20054;-76
2021/05/16 01:32:53;;;;;;;37.95;16.70;;;;;;;9.38;92.69;99880.28;1031970;28;20054;-76
2021/05/16 01:33:24;;;;;;;36.00;15.02;;;;;;;9.41;92.89;99895.78;1035696;28;20135;-76
2021/05/16 01:33:56;;;;;;;35.42;15.40;;;;;;;9.42;92.82;99886.34;1040875;28;20055;-76
2021/05/16 01:34:27;;;;;;;38.65;16.75;;;;;;;9.39;92.77;99887.16;1044738;28;20052;-76
2021/05/16 01:34:59;;;;;;;27.02;15.32;;;;;;;9.39;92.68;99887.16;1044103;28;20053;-75
2021/05/16 01:35:32;;;;;;;34.95;17.08;;;;;;;9.38;92.61;99885.44;1044154;28;20049;-76
2021/05/16 01:36:05;;;;;;;37.80;16.70;;;;;;;9.39;92.59;99883.72;1041498;28;20511;-76
2021/05/16 01:36:37;;;;;;;29.10;15.93;;;;;;;9.39;92.80;99883.72;1047997;28;20512;-76
2021/05/16 01:37:12;;;;;;;33.55;16.92;;;;;;;9.35;92.80;99884.56;1045009;28;20053;-76
2021/05/16 01:37:44;;;;;;;36.22;16.20;;;;;;;9.36;92.70;99887.16;1048127;28;20052;-76
2021/05/16 01:38:15;;;;;;;30.15;16.95;;;;;;;9.36;93.01;99883.69;1049329;28;20045;-76
2021/05/16 01:38:47;;;;;;;32.55;15.23;;;;;;;9.34;93.13;99891.44;1048397;28;20078;-76
2021/05/16 01:39:19;;;;;;;37.97;15.73;;;;;;;9.36;93.07;99882.00;1044127;28;20057;-77
2021/05/16 01:39:50;;;;;;;34.15;16.42;;;;;;;9.37;93.20;99893.19;1040339;28;20117;-76
2021/05/16 01:40:23;;;;;;;35.53;16.17;;;;;;;9.35;93.28;99887.13;1044111;28;20500;-76
2021/05/16 01:40:54;;;;;;;30.60;15.68;;;;;;;9.34;93.20;99888.88;1040504;28;20045;-77
2021/05/16 01:41:26;;;;;;;46.92;17.70;;;;;;;9.35;93.16;99888.00;1044494;28;20429;-77
2021/05/16 01:41:58;;;;;;;36.55;16.92;;;;;;;9.36;93.08;99887.16;1044257;28;20158;-77
2021/05/16 01:42:31;;;;;;;30.00;15.52;;;;;;;9.32;92.86;99877.69;1040715;28;20049;-77
2021/05/16 01:43:02;;;;;;;33.72;16.17;;;;;;;9.34;92.83;99880.25;1044777;28;20059;-77
2021/05/16 01:43:39;;;;;;;29.40;15.30;;;;;;;9.36;93.00;99882.00;1044979;28;20547;-76
2021/05/16 01:44:15;;;;;;;33.05;16.52;;;;;;;9.37;92.70;99886.31;1049872;28;20056;-77
2021/05/16 01:44:46;;;;;;;46.58;18.50;;;;;;;9.36;92.65;99884.59;1048179;28;20048;-76
2021/05/16 01:45:24;;;;;;;36.33;16.85;;;;;;;9.36;92.80;99883.69;1046022;28;20532;-76
2021/05/16 01:45:57;;;;;;;38.72;16.42;;;;;;;9.34;92.66;99877.69;1044068;28;20057;-76
2021/05/16 01:46:29;;;;;;;36.40;16.50;;;;;;;9.36;92.95;99883.69;1045464;28;20861;-76
2021/05/16 01:47:01;;;;;;;39.80;17.42;;;;;;;9.32;92.62;99882.84;1049868;28;20048;-76
2021/05/16 01:47:33;;;;;;;33.58;15.88;;;;;;;9.36;92.74;99886.28;1049066;28;20045;-75
2021/05/16 01:48:05;;;;;;;38.17;16.42;;;;;;;9.38;92.98;99884.59;1047834;28;20056;-76
2021/05/16 01:48:36;;;;;;;44.88;17.30;;;;;;;9.33;93.07;99889.72;1044011;28;20424;-76
2021/05/16 01:49:08;;;;;;;39.80;17.30;;;;;;;9.31;93.05;99877.69;1040285;28;20136;-76
2021/05/16 01:49:46;;;;;;;33.83;15.15;;;;;;;9.33;92.83;99879.41;1044165;28;20418;-76
2021/05/16 01:50:21;;;;;;;31.85;15.38;;;;;;;9.34;92.89;99888.00;1044059;28;20424;-75
2021/05/16 01:50:52;;;;;;;40.58;16.75;;;;;;;9.34;93.01;99881.13;1043712;28;20057;-76
2021/05/16 01:51:24;;;;;;;31.00;16.20;;;;;;;9.34;93.07;99882.84;1037785;28;20143;-76
2021/05/16 01:51:55;;;;;;;34.95;15.57;;;;;;;9.35;92.88;99884.56;1043924;28;20155;-76
2021/05/16 01:52:30;;;;;;;35.22;17.52;;;;;;;9.39;93.16;99888.88;1044756;28;20056;-76
2021/05/16 01:53:05;;;;;;;39.65;16.58;;;;;;;9.34;93.09;99881.13;1052171;28;20048;-75
2021/05/16 01:53:37;;;;;;;38.22;16.85;;;;;;;9.37;92.78;99888.03;1052442;28;20044;-75
2021/05/16 01:54:10;;;;;;;29.67;15.63;;;;;;;9.39;92.81;99883.72;1048227;28;20055;-76
2021/05/16 01:54:42;;;;;;;36.70;16.25;;;;;;;9.39;92.80;99886.31;1048328;28;20048;-76
2021/05/16 01:55:15;;;;;;;40.75;17.63;;;;;;;9.38;93.00;99882.00;1044709;28;20049;-76
2021/05/16 01:55:47;;;;;;;41.13;17.45;;;;;;;9.37;93.06;99882.88;1049073;28;20052;-76
2021/05/16 01:56:21;;;;;;;39.67;16.83;;;;;;;9.35;93.11;99877.69;1048210;28;20504;-75
2021/05/16 01:56:53;;;;;;;28.30;14.57;;;;;;;9.34;92.63;99881.13;1045218;28;20052;-76
2021/05/16 01:57:26;;;;;;;37.20;17.42;;;;;;;9.34;92.72;99885.41;1043873;28;20515;-76
2021/05/16 01:57:59;;;;;;;41.33;17.17;;;;;;;9.33;92.66;99878.53;1041057;28;20071;-75
2021/05/16 01:58:31;;;;;;;34.90;16.27;;;;;;;9.33;92.43;99886.28;1044847;28;20041;-76
2021/05/16 01:59:03;;;;;;;30.02;15.70;;;;;;;9.33;92.41;99878.53;1044577;28;20060;-76
2021/05/16 01:59:36;;;;;;;31.15;15.52;;;;;;;9.38;92.40;99892.34;1044015;28;20052;-76
2021/05/16 02:00:12;;;;;;;38.65;17.33;;;;;;;9.38;92.46;99882.00;1040918;28;20099;-76
2021/05/16 02:00:44;;;;;;;28.98;13.13;;;;;;;9.34;92.40;99882.84;1041488;28;20045;-74
2021/05/16 02:01:16;;;;;;;34.72;14.98;;;;;;;9.35;92.11;99887.13;1043475;28;20056;-75
2021/05/16 02:01:47;;;;;;;40.72;16.90;;;;;;;9.33;92.29;99889.72;1045097;28;20136;-76
2021/05/16 02:02:19;;;;;;;41.00;17.17;;;;;;;9.33;92.38;99883.69;1048740;28;20072;-75
2021/05/16 02:02:52;;;;;;;38.25;16.40;;;;;;;9.35;92.38;99888.00;1048686;28;20053;-75
2021/05/16 02:03:24;;;;;;;32.70;14.10;;;;;;;9.33;92.11;99881.13;1052335;28;20048;-75
2021/05/16 02:03:56;;;;;;;40.90;15.75;;;;;;;9.38;92.05;99890.59;1052410;28;20393;-75
2021/05/16 02:04:30;;;;;;;38.55;17.77;;;;;;;9.35;92.07;99885.41;1052358;28;20051;-75
2021/05/16 02:05:02;;;;;;;35.10;15.15;;;;;;;9.34;92.15;99894.03;1048216;28;20581;-75
2021/05/16 02:05:34;;;;;;;45.38;17.42;;;;;;;9.33;92.25;99886.28;1043810;28;20052;-75
2021/05/16 02:06:07;;;;;;;45.90;15.82;;;;;;;9.34;92.23;99886.28;1040841;28;20060;-74
2021/05/16 02:06:39;;;;;;;31.98;15.23;;;;;;;9.33;92.17;99886.28;1040642;28;20136;-75
2021/05/16 02:07:11;;;;;;;39.25;16.00;;;;;;;9.35;92.00;99884.56;1040284;28;20057;-75
2021/05/16 02:07:43;;;;;;;35.78;16.85;;;;;;;9.35;92.23;99890.59;1036524;28;20049;-74
2021/05/16 02:08:17;;;;;;;34.50;15.98;;;;;;;9.33;92.21;99884.56;1039991;28;20050;-74
2021/05/16 02:08:49;;;;;;;37.85;15.77;;;;;;;9.35;92.32;99889.72;1043751;28;20041;-75
2021/05/16 02:09:20;;;;;;;40.90;17.02;;;;;;;9.34;92.28;99894.03;1044098;28;20191;-74
2021/05/16 02:09:53;;;;;;;40.88;15.90;;;;;;;9.34;92.28;99886.28;1039836;28;20051;-75
2021/05/16 02:10:25;;;;;;;34.63;15.82;;;;;;;9.35;92.07;99885.41;1041429;28;20049;-75
2021/05/16 02:10:56;;;;;;;36.63;16.08;;;;;;;9.34;92.26;99885.41;1044607;28;20501;-75
2021/05/16 02:11:28;;;;;;;36.17;15.73;;;;;;;9.35;92.40;99887.13;1048170;28;20049;-75
2021/05/16 02:11:59;;;;;;;38.42;15.88;;;;;;;9.31;92.26;99880.25;1047784;28;20040;-75
2021/05/16 02:12:32;;;;;;;34.60;15.85;;;;;;;9.32;92.14;99887.16;1048165;28;20045;-76
2021/05/16 02:13:04;;;;;;;38.00;16.35;;;;;;;9.30;91.99;99887.13;1044120;28;20138;-74
2021/05/16 02:13:40;;;;;;;35.10;15.73;;;;;;;9.32;92.27;99888.00;1044765;28;20409;-74
2021/05/16 02:14:11;;;;;;;32.63;16.67;;;;;;;9.33;92.39;99886.28;1044054;28;20053;-74
2021/05/16 02:14:44;;;;;;;35.00;16.58;;;;;;;9.37;92.49;99888.88;1045282;28;20128;-75
2021/05/16 02:15:17;;;;;;;30.00;15.32;;;;;;;9.35;92.55;99889.72;1045245;28;20056;-75
2021/05/16 02:15:48;;;;;;;39.55;16.40;;;;;;;9.32;92.40;99889.72;1048179;28;20139;-75
2021/05/16 02:16:20;;;;;;;40.38;17.05;;;;;;;9.33;92.53;99886.28;1047939;28;20056;-74
2021/05/16 02:16:51;;;;;;;40.20;17.67;;;;;;;9.33;92.79;99884.56;1044481;28;20045;-75
2021/05/16 02:17:23;;;;;;;33.50;15.57;;;;;;;9.34;92.52;99895.75;1048555;28;20123;-75
2021/05/16 02:17:56;;;;;;;34.85;16.25;;;;;;;9.32;92.41;99888.00;1048202;28;20458;-75
2021/05/16 02:18:27;;;;;;;33.53;16.02;;;;;;;9.33;92.32;99892.31;1044356;28;20446;-76
2021/05/16 02:19:03;;;;;;;36.65;17.08;;;;;;;9.36;92.50;99896.59;1043977;28;20055;-75
2021/05/16 02:19:34;;;;;;;38.97;16.27;;;;;;;9.32;92.35;99887.16;1040950;28;20041;-75
2021/05/16 02:20:08;;;;;;;45.50;16.27;;;;;;;9.28;92.41;99886.25;1039967;28;20049;-75
2021/05/16 02:20:40;;;;;;;39.72;17.67;;;;;;;9.33;92.46;99894.03;1045377;28;20051;-75
2021/05/16 02:21:11;;;;;;;36.45;15.75;;;;;;;9.34;92.53;99895.75;1049009;28;20059;-75
2021/05/16 02:21:43;;;;;;;38.63;16.80;;;;;;;9.31;92.40;99891.44;1052115;28;20048;-75
2021/05/16 02:22:15;;;;;;;33.35;15.52;;;;;;;9.32;92.43;99892.31;1052578;28;20492;-75
2021/05/16 02:22:47;;;;;;;36.92;16.30;;;;;;;9.33;92.29;99888.88;1052547;28;20181;-75
2021/05/16 02:23:18;;;;;;;38.40;16.50;;;;;;;9.32;92.69;99895.75;1052403;28;20048;-75
2021/05/16 02:23:50;;;;;;;37.42;16.38;;;;;;;9.26;92.33;99894.00;1052429;28;20396;-73
2021/05/16 02:24:22;;;;;;;39.50;16.85;;;;;;;9.31;92.16;99888.00;1048209;28;20127;-75
2021/05/16 02:24:54;;;;;;;35.97;16.90;;;;;;;9.32;92.59;99893.16;1048083;28;20051;-75
2021/05/16 02:25:26;;;;;;;41.90;18.08;;;;;;;9.26;92.26;99883.69;1044511;28;20068;-75
2021/05/16 02:25:58;;;;;;;45.40;17.23;;;;;;;9.31;91.75;99893.16;1044757;28;20102;-75
2021/05/16 02:26:29;;;;;;;40.90;16.98;;;;;;;9.29;91.76;99888.84;1043850;28;20060;-74
2021/05/16 02:27:01;;;;;;;40.78;17.80;;;;;;;9.29;92.06;99890.56;1040347;28;20424;-75
2021/05/16 02:27:35;;;;;;;42.92;17.85;;;;;;;9.30;92.17;99892.28;1040296;28;20057;-75
2021/05/16 02:28:06;;;;;;;42.08;16.98;;;;;;;9.27;92.09;99893.13;1043913;28;20056;-75
2021/05/16 02:28:38;;;;;;;43.28;17.98;;;;;;;9.29;91.94;99894.00;1044443;28;20138;-75
2021/05/16 02:29:14;;;;;;;47.38;18.52;;;;;;;9.31;92.26;99888.88;1045345;28;20053;-75
2021/05/16 02:29:46;;;;;;;44.75;17.92;;;;;;;9.32;92.33;99893.16;1044066;28;20041;-75
2021/05/16 02:30:18;;;;;;;44.25;17.70;;;;;;;9.32;92.33;99892.31;1037001;28;20046;-75
2021/05/16 02:30:51;;;;;;;38.95;17.13;;;;;;;9.31;92.39;99893.16;1041139;28;20059;-75
2021/05/16 02:31:22;;;;;;;36.35;16.65;;;;;;;9.28;92.25;99891.41;1044682;28;20516;-75
2021/05/16 02:31:55;;;;;;;36.33;15.85;;;;;;;9.24;92.40;99890.53;1044756;28;20075;-75